Chisholm Hibbing Airport
KHIB : now visible

Airfield :











YOU CAN JOIN US ON...

 
LOGIN :

Register | Disclaimer

   EN    FR    IT 

 









Legend :    VFR   Marginal VFR   IFR   Intensive IFR   Very Intensive IFR
Visi :
Ceiling :
>= 8 km
>= 3000ft
5 to 8 km
1000 to 3000 ft
1500m to 5 km
500 to 1000 ft
800 to 1500m
200 to 500 ft
< 800m
< 200 ft
Symbols :   Thunderstorms  Fog  Heavy snow  Heavy precipitations  Wind > 20 kt






- Airport Elevation : 1354 ft
- IATA code : HIB


KHIB - Chisholm Hibbing

CURRENT METAR :
  • 260453Z AUTO 09003KT 10SM CLR M01/M03 A3016 RMK AO2 SLP229 T10111028

EXPIRED METARs :
  • 260353Z AUTO 10006KT 10SM CLR 02/M02 A3016 RMK AO2 SLP229 T00171017
  • 260329Z AUTO 09006KT 10SM SCT024 02/M02 A3017 RMK AO2 T00221017
  • 260303Z AUTO 11007KT 10SM BKN025 01/M02 A3018 RMK AO2 T00111017
  • 260253Z AUTO 12006KT 10SM SCT026 01/M02 A3018 RMK AO2 SLP235 T00061022 58001
  • 260233Z AUTO 13006KT 10SM SCT025 01/M02 A3018 RMK AO2 T00111017

TAF KHIB
Valid from the 26 at 00:00 until the 27 at 00:00 UTC


252332Z 2600/2624 13007KT P6SM BKN090
FM260200 11005KT P6SM BKN020
FM260900 14005KT P6SM BKN060
FM261500 14009G16KT P6SM BKN060
KZMP FIR / North America



MET'MAP, your aeronautical weather chart ! - Copyright ORBIFLY December 2007 - Disclaimer

ORBIFLY MET'MAP TEAM :

Programming & Development : Alexandra Zaïnal
Concept & original design : Baudouin d'Aumeries
Assistance for programming : Marc-Olivier Méhu
Technical & hardware support : Manuel Goepfert

Contact : metmap@orbifly.com




SOURCES & CREDITS :

   NOAA       Earth
Advisory